createdAt,value
2019-01-21T00:00:34.688Z,-8.80
2019-01-21T00:03:03.978Z,-8.80
2019-01-21T00:05:33.618Z,-8.80
2019-01-21T00:08:03.699Z,-8.80
2019-01-21T00:10:33.023Z,-8.80
2019-01-21T00:13:02.269Z,-8.80
2019-01-21T00:15:31.900Z,-8.80
2019-01-21T00:18:01.447Z,-8.80
2019-01-21T00:20:31.118Z,-8.80
2019-01-21T00:23:00.357Z,-8.80
2019-01-21T00:25:29.984Z,-8.80
2019-01-21T00:27:59.992Z,-8.80
2019-01-21T00:30:29.658Z,-8.80
2019-01-21T00:32:59.258Z,-8.80
2019-01-21T00:35:28.533Z,-8.80
2019-01-21T00:37:58.141Z,-8.80
2019-01-21T00:40:46.954Z,-8.70
2019-01-21T00:43:16.536Z,-8.70
2019-01-21T00:45:46.482Z,-8.70
2019-01-21T00:48:16.168Z,-8.70
2019-01-21T00:51:05.013Z,-8.70
2019-01-21T00:53:35.163Z,-8.70
2019-01-21T00:56:04.822Z,-8.70
2019-01-21T00:58:34.492Z,-8.80
2019-01-21T01:01:04.153Z,-8.80
2019-01-21T01:03:33.875Z,-8.80
2019-01-21T01:06:03.438Z,-8.90
2019-01-21T01:08:33.022Z,-8.90
2019-01-21T01:11:02.554Z,-8.90
2019-01-21T01:13:32.530Z,-8.90
2019-01-21T01:16:01.793Z,-8.90
2019-01-21T01:18:31.477Z,-8.90
2019-01-21T01:21:00.720Z,-8.90
2019-01-21T01:23:30.263Z,-8.90
2019-01-21T01:25:59.927Z,-8.90
2019-01-21T01:28:29.501Z,-8.90
2019-01-21T01:30:59.148Z,-9.00
2019-01-21T01:33:28.781Z,-9.00
2019-01-21T01:35:58.439Z,-9.00
2019-01-21T01:38:28.471Z,-9.00
2019-01-21T01:40:58.425Z,-9.00
2019-01-21T01:43:28.573Z,-9.00
2019-01-21T01:45:57.956Z,-9.00
2019-01-21T01:48:28.026Z,-9.10
2019-01-21T01:50:57.599Z,-9.10
2019-01-21T01:53:26.934Z,-9.10
2019-01-21T01:55:56.343Z,-9.10
2019-01-21T01:58:26.108Z,-9.10
2019-01-21T02:00:55.691Z,-9.10
2019-01-21T02:03:44.114Z,-9.10
2019-01-21T02:06:33.128Z,-9.10
2019-01-21T02:09:22.250Z,-9.10
2019-01-21T02:11:51.480Z,-9.10
2019-01-21T02:14:21.423Z,-9.20
2019-01-21T02:16:50.795Z,-9.20
2019-01-21T02:19:20.575Z,-9.20
2019-01-21T02:21:50.709Z,-9.20
2019-01-21T02:24:20.776Z,-9.20
2019-01-21T02:27:00.010Z,-9.20
2019-01-21T02:29:47.351Z,-9.30
2019-01-21T02:33:04.228Z,-9.30
2019-01-21T02:36:16.426Z,-9.30
2019-01-21T02:39:28.755Z,-9.30
2019-01-21T02:42:45.363Z,-9.30
2019-01-21T02:45:55.135Z,-9.30
2019-01-21T02:48:41.944Z,-9.40
2019-01-21T02:51:39.235Z,-9.40
2019-01-21T02:54:42.974Z,-9.40
2019-01-21T02:58:11.943Z,-9.40
2019-01-21T03:01:00.596Z,-9.40
2019-01-21T03:03:42.238Z,-9.50
2019-01-21T03:06:46.151Z,-9.50
2019-01-21T03:09:57.008Z,-9.50
2019-01-21T03:13:03.675Z,-9.50
2019-01-21T03:16:03.834Z,-9.50
2019-01-21T03:19:00.246Z,-9.50
2019-01-21T03:22:06.406Z,-9.50
2019-01-21T03:25:24.794Z,-9.50
2019-01-21T03:28:29.841Z,-9.50
2019-01-21T03:31:53.276Z,-9.60
2019-01-21T03:35:04.674Z,-9.60
2019-01-21T03:38:03.875Z,-9.60
2019-01-21T03:41:00.185Z,-9.60
2019-01-21T03:44:10.427Z,-9.60
2019-01-21T03:47:33.982Z,-9.70
2019-01-21T03:50:44.921Z,-9.60
2019-01-21T03:53:57.110Z,-9.70
2019-01-21T03:57:01.867Z,-9.70
2019-01-21T04:00:09.020Z,-9.70
2019-01-21T04:02:57.961Z,-9.70
2019-01-21T04:06:26.892Z,-9.70
2019-01-21T04:09:49.354Z,-9.70
2019-01-21T04:12:47.041Z,-9.70
2019-01-21T04:15:48.854Z,-9.70
2019-01-21T04:18:56.591Z,-9.60
2019-01-21T04:22:09.272Z,-9.60
2019-01-21T04:25:19.237Z,-9.60
2019-01-21T04:28:25.625Z,-9.50
2019-01-21T04:31:43.030Z,-9.50
2019-01-21T04:34:54.346Z,-9.40
2019-01-21T04:38:10.643Z,-9.30
2019-01-21T04:41:27.318Z,-9.20
2019-01-21T04:44:30.590Z,-9.10
2019-01-21T04:47:25.072Z,-9.10
2019-01-21T04:50:20.872Z,-9.00
2019-01-21T04:53:44.199Z,-8.90
2019-01-21T04:56:50.629Z,-8.80
2019-01-21T04:59:54.245Z,-8.70
2019-01-21T05:03:01.088Z,-8.60
2019-01-21T05:06:12.552Z,-8.50
2019-01-21T05:09:18.148Z,-8.40
2019-01-21T05:12:44.089Z,-8.30
2019-01-21T05:15:51.404Z,-8.20
2019-01-21T05:18:50.816Z,-8.20
2019-01-21T05:22:04.917Z,-8.10
2019-01-21T05:25:30.848Z,-8.00
2019-01-21T05:28:26.162Z,-7.90
2019-01-21T05:31:41.990Z,-7.80
2019-01-21T05:34:53.656Z,-7.70
2019-01-21T05:38:22.300Z,-7.50
2019-01-21T05:41:07.352Z,-7.50
2019-01-21T05:44:09.796Z,-7.40
2019-01-21T05:47:35.770Z,-7.30
2019-01-21T05:50:34.627Z,-7.30
2019-01-21T05:53:37.183Z,-7.30
2019-01-21T05:56:42.554Z,-7.30
2019-01-21T05:59:55.199Z,-7.30
2019-01-21T06:03:04.672Z,-7.40
2019-01-21T06:06:20.398Z,-7.40
2019-01-21T06:09:49.252Z,-7.40
2019-01-21T06:12:57.314Z,-7.40
2019-01-21T06:16:11.379Z,-7.40
2019-01-21T06:19:17.811Z,-7.40
2019-01-21T06:22:23.505Z,-7.40
2019-01-21T06:25:12.254Z,-7.40
2019-01-21T06:28:32.007Z,-7.50
2019-01-21T06:31:44.607Z,-7.50
2019-01-21T06:34:39.014Z,-7.50
2019-01-21T06:38:02.372Z,-7.60
2019-01-21T06:41:10.715Z,-7.60
2019-01-21T06:44:10.592Z,-7.70
2019-01-21T06:47:04.605Z,-7.70
2019-01-21T06:50:08.462Z,-7.80
2019-01-21T06:53:46.996Z,-7.80
2019-01-21T06:56:47.632Z,-7.90
2019-01-21T06:59:46.589Z,-7.90
2019-01-21T07:02:40.781Z,-8.00
2019-01-21T07:05:23.044Z,-8.00
2019-01-21T07:08:39.605Z,-8.00
2019-01-21T07:11:49.885Z,-8.10
2019-01-21T07:15:00.510Z,-8.20
2019-01-21T07:18:20.068Z,-8.20
2019-01-21T07:21:16.176Z,-8.20
2019-01-21T07:24:24.726Z,-8.30
2019-01-21T07:27:39.618Z,-8.20
2019-01-21T07:30:43.564Z,-8.20
2019-01-21T07:33:59.134Z,-8.20
2019-01-21T07:37:19.506Z,-8.10
2019-01-21T07:40:17.379Z,-7.90
2019-01-21T07:43:21.818Z,-7.80
2019-01-21T07:46:13.226Z,-7.80
2019-01-21T07:49:54.382Z,-7.70
2019-01-21T07:53:09.210Z,-7.60
2019-01-21T07:56:06.196Z,-7.50
2019-01-21T07:59:12.535Z,-7.40
2019-01-21T08:02:04.009Z,-7.20
2019-01-21T08:05:28.634Z,-7.10
2019-01-21T08:08:28.826Z,-6.90
2019-01-21T08:11:36.571Z,-6.80
2019-01-21T08:14:35.493Z,-6.60
2019-01-21T08:17:45.169Z,-6.50
2019-01-21T08:20:33.241Z,-6.30
2019-01-21T08:24:05.658Z,-6.20
2019-01-21T08:27:28.397Z,-6.00
2019-01-21T08:30:23.198Z,-5.90
2019-01-21T08:33:52.298Z,-5.70
2019-01-21T08:37:06.160Z,-5.60
2019-01-21T08:40:22.845Z,-5.50
2019-01-21T08:43:22.772Z,-5.40
2019-01-21T08:46:21.529Z,-5.40
2019-01-21T08:49:33.836Z,-5.30
2019-01-21T08:52:34.424Z,-5.20
2019-01-21T08:55:54.070Z,-5.10
2019-01-21T08:58:52.251Z,-5.10
2019-01-21T09:01:47.807Z,-5.00
2019-01-21T09:05:22.479Z,-4.80
2019-01-21T09:08:27.986Z,-4.80
2019-01-21T09:11:09.909Z,-4.60
2019-01-21T09:14:29.767Z,-4.50
2019-01-21T09:17:22.198Z,-4.50
2019-01-21T09:20:34.937Z,-4.30
2019-01-21T09:23:48.735Z,-4.30
2019-01-21T09:26:48.282Z,-4.20
2019-01-21T09:29:29.222Z,-4.10
2019-01-21T09:32:31.787Z,-4.00
2019-01-21T09:35:42.688Z,-3.90
2019-01-21T09:39:11.754Z,-3.70
2019-01-21T09:42:11.646Z,-3.60
2019-01-21T09:45:12.846Z,-3.50
2019-01-21T09:48:00.689Z,-3.40
2019-01-21T09:50:30.490Z,-3.40
2019-01-21T09:52:59.695Z,-3.40
2019-01-21T09:55:29.669Z,-3.40
2019-01-21T09:58:09.901Z,-3.40
2019-01-21T10:00:39.188Z,-3.40
2019-01-21T10:03:09.258Z,-3.30
2019-01-21T10:05:38.943Z,-3.30
2019-01-21T10:08:44.845Z,-3.20
2019-01-21T10:11:55.691Z,-3.20
2019-01-21T10:15:08.205Z,-3.10
2019-01-21T10:18:12.698Z,-3.00
2019-01-21T10:21:35.043Z,-2.90
2019-01-21T10:24:46.130Z,-2.90
2019-01-21T10:27:56.140Z,-2.80
2019-01-21T10:30:44.169Z,-2.80
2019-01-21T10:33:54.894Z,-2.70
2019-01-21T10:37:08.314Z,-2.70
2019-01-21T10:40:24.658Z,-2.60
2019-01-21T10:43:44.283Z,-2.60
2019-01-21T10:46:42.727Z,-2.50
2019-01-21T10:49:47.836Z,-2.40
2019-01-21T10:52:48.322Z,-2.30
2019-01-21T10:56:01.946Z,-2.30
2019-01-21T10:59:05.822Z,-2.20
2019-01-21T11:02:12.365Z,-2.10
2019-01-21T11:05:16.598Z,-2.00
2019-01-21T11:08:34.367Z,-1.70
2019-01-21T11:11:54.163Z,-1.30
2019-01-21T11:14:37.672Z,-0.90
2019-01-21T11:17:50.411Z,-0.70
2019-01-21T11:20:50.770Z,-0.30
2019-01-21T11:24:08.572Z,-0.10
2019-01-21T11:27:01.628Z,-0.20
2019-01-21T11:29:57.362Z,-0.10
2019-01-21T11:33:18.791Z,-0.10
2019-01-21T11:36:13.289Z,-0.30
2019-01-21T11:39:39.756Z,-0.50
2019-01-21T11:42:53.366Z,-0.70
2019-01-21T11:46:11.951Z,-0.80
2019-01-21T11:49:09.859Z,-1.00
2019-01-21T11:52:08.008Z,-1.10
2019-01-21T11:55:14.635Z,-1.20
2019-01-21T11:58:23.366Z,-1.30
2019-01-21T12:01:26.241Z,-1.30
2019-01-21T12:04:21.104Z,-1.40
2019-01-21T12:07:35.115Z,-1.40
2019-01-21T12:10:36.383Z,-1.40
2019-01-21T12:13:57.765Z,-1.40
2019-01-21T12:16:53.702Z,-1.40
2019-01-21T12:20:07.987Z,-1.30
2019-01-21T12:23:26.313Z,-1.30
2019-01-21T12:26:16.505Z,-1.20
2019-01-21T12:28:55.567Z,-1.20
2019-01-21T12:31:48.964Z,-1.10
2019-01-21T12:34:33.752Z,-1.10
2019-01-21T12:37:44.261Z,-1.10
2019-01-21T12:40:41.548Z,-1.10
2019-01-21T12:43:39.590Z,-1.10
2019-01-21T12:46:40.682Z,-1.10
2019-01-21T12:50:02.455Z,-1.00
2019-01-21T12:52:48.641Z,-1.00
2019-01-21T12:55:47.451Z,-0.90
2019-01-21T12:58:43.589Z,-0.90
2019-01-21T13:01:24.089Z,-0.90
2019-01-21T13:04:40.837Z,-0.90
2019-01-21T13:08:09.776Z,-0.90
2019-01-21T13:11:16.953Z,-0.90
2019-01-21T13:14:38.622Z,-0.90
2019-01-21T13:17:28.872Z,-0.90
2019-01-21T13:20:31.735Z,-0.90
2019-01-21T13:23:32.002Z,-0.90
2019-01-21T13:26:36.354Z,-0.90
2019-01-21T13:29:30.122Z,-0.90
2019-01-21T13:32:40.563Z,-0.90
2019-01-21T13:35:40.734Z,-0.90
2019-01-21T13:38:43.427Z,-0.90
2019-01-21T13:41:43.264Z,-0.90
2019-01-21T13:44:49.881Z,-0.80
2019-01-21T13:48:06.663Z,-0.80
2019-01-21T13:51:07.142Z,-0.80
2019-01-21T13:54:24.026Z,-0.80
2019-01-21T13:57:07.525Z,-0.80
2019-01-21T14:00:01.871Z,-0.80
2019-01-21T14:02:59.851Z,-0.70
2019-01-21T14:05:51.682Z,-0.70
2019-01-21T14:08:51.166Z,-0.70
2019-01-21T14:11:53.516Z,-0.70
2019-01-21T14:15:02.683Z,-0.60
2019-01-21T14:18:40.696Z,-0.60
2019-01-21T14:21:17.775Z,-0.60
2019-01-21T14:24:33.869Z,-0.60
2019-01-21T14:27:35.104Z,-0.60
2019-01-21T14:30:22.206Z,-0.50
2019-01-21T14:33:36.767Z,-0.50
2019-01-21T14:36:56.967Z,-0.50
2019-01-21T14:39:52.274Z,-0.40
2019-01-21T14:42:35.245Z,-0.40
2019-01-21T14:45:30.328Z,-0.30
2019-01-21T14:48:56.460Z,-0.30
2019-01-21T14:52:16.754Z,-0.30
2019-01-21T14:55:17.546Z,-0.20
2019-01-21T14:58:25.381Z,-0.20
2019-01-21T15:02:02.774Z,-0.20
2019-01-21T15:05:15.370Z,-0.20
2019-01-21T15:08:34.470Z,-0.20
2019-01-21T15:11:36.463Z,-0.20
2019-01-21T15:14:31.439Z,-0.20
2019-01-21T15:17:56.033Z,-0.20
2019-01-21T15:20:44.365Z,-0.20
2019-01-21T15:23:54.726Z,-0.20
2019-01-21T15:26:55.355Z,-0.30
2019-01-21T15:30:15.017Z,-0.30
2019-01-21T15:33:16.942Z,-0.30
2019-01-21T15:36:13.262Z,-0.30
2019-01-21T15:39:22.169Z,-0.40
2019-01-21T15:42:29.002Z,-0.40
2019-01-21T15:45:49.903Z,-0.40
2019-01-21T15:48:51.583Z,-0.50
2019-01-21T15:51:58.687Z,-0.50
2019-01-21T15:55:05.796Z,-0.50
2019-01-21T15:58:02.802Z,-0.60
2019-01-21T16:01:12.634Z,-0.60
2019-01-21T16:04:23.115Z,-0.70
2019-01-21T16:07:12.298Z,-0.70
2019-01-21T16:10:18.815Z,-0.70
2019-01-21T16:13:30.939Z,-0.70
2019-01-21T16:16:46.397Z,-0.80
2019-01-21T16:19:18.908Z,-0.80
2019-01-21T16:22:40.173Z,-0.80
2019-01-21T16:25:33.203Z,-0.80
2019-01-21T16:28:39.497Z,-0.80
2019-01-21T16:31:23.653Z,-0.80
2019-01-21T16:34:28.627Z,-0.80
2019-01-21T16:37:22.448Z,-0.80
2019-01-21T16:40:19.719Z,-0.80
2019-01-21T16:42:49.465Z,-0.80
2019-01-21T16:45:18.782Z,-0.80
2019-01-21T16:47:48.825Z,-0.80
2019-01-21T16:50:18.359Z,-0.90
2019-01-21T16:52:47.559Z,-0.90
2019-01-21T16:55:16.842Z,-0.90
2019-01-21T16:57:46.497Z,-0.90
2019-01-21T17:00:15.741Z,-1.00
2019-01-21T17:02:45.503Z,-0.90
2019-01-21T17:05:14.837Z,-1.00
2019-01-21T17:07:44.580Z,-1.00
2019-01-21T17:10:14.139Z,-1.00
2019-01-21T17:12:43.922Z,-1.00
2019-01-21T17:15:13.215Z,-1.00
2019-01-21T17:17:42.587Z,-1.10
2019-01-21T17:20:18.420Z,-1.00
2019-01-21T17:22:48.046Z,-1.00
2019-01-21T17:25:17.302Z,-1.00
2019-01-21T17:27:46.942Z,-1.00
2019-01-21T17:30:16.585Z,-1.00
2019-01-21T17:32:46.511Z,-1.00
2019-01-21T17:35:16.535Z,-1.00
2019-01-21T17:37:46.314Z,-1.00
2019-01-21T17:40:17.291Z,-1.00
2019-01-21T17:42:46.697Z,-1.00
2019-01-21T17:45:18.070Z,-1.00
2019-01-21T17:47:48.891Z,-1.00
2019-01-21T17:50:18.817Z,-1.00
2019-01-21T17:52:48.460Z,-1.00
2019-01-21T17:55:18.457Z,-1.00
2019-01-21T17:57:47.899Z,-1.10
2019-01-21T18:00:36.365Z,-1.10
2019-01-21T18:03:06.050Z,-1.10
2019-01-21T18:05:35.470Z,-1.20
2019-01-21T18:08:05.007Z,-1.20
2019-01-21T18:10:34.683Z,-1.20
2019-01-21T18:13:04.741Z,-1.20
2019-01-21T18:15:34.001Z,-1.20
2019-01-21T18:18:03.539Z,-1.20
2019-01-21T18:20:33.113Z,-1.20
2019-01-21T18:23:02.330Z,-1.20
2019-01-21T18:25:33.077Z,-1.30
2019-01-21T18:28:02.519Z,-1.30
2019-01-21T18:30:31.763Z,-1.20
2019-01-21T18:33:01.775Z,-1.20
2019-01-21T18:35:31.416Z,-1.20
2019-01-21T18:38:01.167Z,-1.20
2019-01-21T18:40:30.907Z,-1.20
2019-01-21T18:43:00.157Z,-1.20
2019-01-21T18:45:29.395Z,-1.20
2019-01-21T18:47:59.061Z,-1.20
2019-01-21T18:50:28.801Z,-1.20
2019-01-21T18:52:58.473Z,-1.20
2019-01-21T18:55:28.173Z,-1.20
2019-01-21T18:57:57.836Z,-1.20
2019-01-21T19:00:27.282Z,-1.20
2019-01-21T19:02:57.294Z,-1.20
2019-01-21T19:05:26.544Z,-1.10
2019-01-21T19:07:55.839Z,-1.20
2019-01-21T19:10:25.081Z,-1.20
2019-01-21T19:12:54.554Z,-1.20
2019-01-21T19:15:29.249Z,-1.20
2019-01-21T19:17:58.613Z,-1.10
2019-01-21T19:20:28.266Z,-1.20
2019-01-21T19:22:57.939Z,-1.10
2019-01-21T19:25:27.596Z,-1.10
2019-01-21T19:27:56.876Z,-1.10
2019-01-21T19:30:27.847Z,-1.00
2019-01-21T19:32:57.810Z,-1.00
2019-01-21T19:35:35.635Z,-1.00
2019-01-21T19:38:05.354Z,-1.00
2019-01-21T19:40:34.882Z,-0.90
2019-01-21T19:43:04.428Z,-0.90
2019-01-21T19:45:34.463Z,-0.90
2019-01-21T19:48:03.798Z,-0.80
2019-01-21T19:50:33.434Z,-0.80
2019-01-21T19:53:02.986Z,-0.80
2019-01-21T19:55:43.147Z,-0.80
2019-01-21T19:58:13.195Z,-0.80
2019-01-21T20:00:42.466Z,-0.80
2019-01-21T20:03:12.894Z,-0.70
2019-01-21T20:05:42.548Z,-0.70
2019-01-21T20:08:12.221Z,-0.70
2019-01-21T20:10:41.553Z,-0.70
2019-01-21T20:13:11.153Z,-0.60
2019-01-21T20:15:40.675Z,-0.60
2019-01-21T20:18:09.996Z,-0.70
2019-01-21T20:20:41.520Z,-0.70
2019-01-21T20:23:10.909Z,-0.70
2019-01-21T20:25:40.152Z,-0.80
2019-01-21T20:28:09.688Z,-0.80
2019-01-21T20:30:39.044Z,-0.80
2019-01-21T20:33:08.702Z,-0.80
2019-01-21T20:35:38.316Z,-0.90
2019-01-21T20:38:07.584Z,-0.90
2019-01-21T20:40:37.025Z,-0.90
2019-01-21T20:43:06.814Z,-0.90
2019-01-21T20:45:36.363Z,-0.90
2019-01-21T20:48:06.017Z,-0.90
2019-01-21T20:50:36.322Z,-0.90
2019-01-21T20:53:06.158Z,-0.80
2019-01-21T20:55:35.822Z,-0.80
2019-01-21T20:58:05.234Z,-0.80
2019-01-21T21:00:35.778Z,-0.90
2019-01-21T21:03:06.010Z,-0.80
2019-01-21T21:05:35.489Z,-0.90
2019-01-21T21:08:05.576Z,-0.90
2019-01-21T21:10:35.293Z,-0.90
2019-01-21T21:13:05.476Z,-0.90
2019-01-21T21:15:34.968Z,-0.90
2019-01-21T21:18:04.320Z,-0.80
2019-01-21T21:20:34.100Z,-0.90
2019-01-21T21:23:03.823Z,-0.80
2019-01-21T21:25:33.550Z,-0.90
2019-01-21T21:28:03.300Z,-0.90
2019-01-21T21:30:33.703Z,-0.80
2019-01-21T21:33:03.352Z,-0.90
2019-01-21T21:35:33.073Z,-0.90
2019-01-21T21:38:02.399Z,-0.90
2019-01-21T21:40:32.083Z,-0.90
2019-01-21T21:43:01.590Z,-0.90
2019-01-21T21:45:31.051Z,-0.90
2019-01-21T21:48:01.261Z,-0.90
2019-01-21T21:50:32.717Z,-0.90
2019-01-21T21:53:02.061Z,-0.90
2019-01-21T21:55:31.543Z,-0.90
2019-01-21T21:58:00.922Z,-0.90
2019-01-21T22:00:30.469Z,-0.90
2019-01-21T22:03:00.474Z,-0.90
2019-01-21T22:05:30.582Z,-0.90
2019-01-21T22:08:00.686Z,-0.90
2019-01-21T22:10:31.187Z,-0.90
2019-01-21T22:13:00.555Z,-0.90
2019-01-21T22:15:29.977Z,-0.90
2019-01-21T22:17:59.804Z,-0.90
2019-01-21T22:20:29.131Z,-0.90
2019-01-21T22:22:58.439Z,-0.90
2019-01-21T22:25:27.792Z,-0.90
2019-01-21T22:27:57.858Z,-0.90
2019-01-21T22:30:29.810Z,-0.90
2019-01-21T22:32:59.049Z,-0.90
2019-01-21T22:35:29.090Z,-0.90
2019-01-21T22:37:58.686Z,-0.90
2019-01-21T22:40:28.312Z,-0.90
2019-01-21T22:42:58.219Z,-0.90
2019-01-21T22:45:46.919Z,-0.90
2019-01-21T22:48:16.952Z,-1.00
2019-01-21T22:50:46.178Z,-1.00
2019-01-21T22:53:15.421Z,-1.00
2019-01-21T22:55:45.353Z,-1.00
2019-01-21T22:58:15.096Z,-1.00
2019-01-21T23:01:05.986Z,-1.00
2019-01-21T23:03:36.084Z,-1.00
2019-01-21T23:06:06.273Z,-1.00
2019-01-21T23:08:36.021Z,-1.00
2019-01-21T23:11:05.684Z,-1.00
2019-01-21T23:13:35.311Z,-1.00
2019-01-21T23:16:04.680Z,-1.00
2019-01-21T23:18:34.312Z,-1.00
2019-01-21T23:21:03.702Z,-1.00
2019-01-21T23:23:32.965Z,-1.00
2019-01-21T23:26:02.580Z,-1.00
2019-01-21T23:28:32.366Z,-1.00
2019-01-21T23:31:02.359Z,-1.00
2019-01-21T23:33:32.007Z,-1.00
2019-01-21T23:36:01.241Z,-1.00
2019-01-21T23:38:30.495Z,-1.00
2019-01-21T23:41:00.496Z,-1.00
2019-01-21T23:43:30.119Z,-1.00
2019-01-21T23:45:59.362Z,-1.00
2019-01-21T23:48:28.994Z,-1.00
2019-01-21T23:50:58.549Z,-1.00
2019-01-21T23:53:28.513Z,-1.00
2019-01-21T23:55:58.201Z,-1.00
2019-01-21T23:58:28.224Z,-1.00
